Time;durP1;ratioP1;P1;durP2;ratioP2;P2;SDS_P1;SDS_P2;PMS_P1;PMS_P2;Temp;Humidity;BMP_temperature;BMP_pressure;BME280_temperature;BME280_humidity;BME280_pressure;Samples;Min_cycle;Max_cycle;Signal;HPM_P1;HPM_P2
2021/12/20 00:01:07;;;;;;;;;;;3.90;95.20;;;;;;5056354;28;19932;-73
2021/12/20 00:03:33;;;;;;;;;;;3.90;95.20;;;;;;5054633;28;20415;-72
2021/12/20 00:06:00;;;;;;;;;;;3.90;95.20;;;;;;5054998;28;20019;-72
2021/12/20 00:08:27;;;;;;;;;;;3.90;95.20;;;;;;5056636;28;19929;-73
2021/12/20 00:10:54;;;;;;;;;;;3.90;95.20;;;;;;5052422;28;19929;-73
2021/12/20 00:13:22;;;;;;;;;;;3.90;95.10;;;;;;5058322;28;20308;-73
2021/12/20 00:15:49;;;;;;;;;;;3.90;95.20;;;;;;5059180;28;19928;-73
2021/12/20 00:18:16;;;;;;;;;;;3.90;95.20;;;;;;5052706;28;19933;-73
2021/12/20 00:20:42;;;;;;;;;;;3.90;95.10;;;;;;5052153;28;19928;-73
2021/12/20 00:23:09;;;;;;;;;;;3.90;95.20;;;;;;5060301;28;19928;-73
2021/12/20 00:25:35;;;;;;;;;;;3.90;95.20;;;;;;5060596;28;19935;-73
2021/12/20 00:28:02;;;;;;;;;;;4.00;95.20;;;;;;5052415;28;19932;-73
2021/12/20 00:30:30;;;;;;;;;;;3.90;95.20;;;;;;5056675;28;20544;-73
2021/12/20 00:32:56;;;;;;;;;;;3.90;95.20;;;;;;5051996;28;19940;-73
2021/12/20 00:35:25;;;;;;;;;;;3.90;95.10;;;;;;5053003;28;19947;-73
2021/12/20 00:40:37;;;;;;;;;;;3.90;95.20;;;;;;5053051;28;19950;-73
2021/12/20 00:43:04;;;;;;;;;;;3.90;95.20;;;;;;5054251;28;19936;-73
2021/12/20 00:45:33;;;;;;;;;;;3.90;95.20;;;;;;5045232;28;19929;-73
2021/12/20 00:48:00;;;;;;;;;;;4.00;95.20;;;;;;5054258;28;19936;-73
2021/12/20 00:50:27;;;;;;;;;;;4.00;95.20;;;;;;5051915;28;19929;-73
2021/12/20 00:52:55;;;;;;;;;;;3.90;95.20;;;;;;5057676;28;19937;-73
2021/12/20 00:55:22;;;;;;;;;;;3.90;95.10;;;;;;5049706;28;19940;-73
2021/12/20 00:57:49;;;;;;;;;;;3.90;95.20;;;;;;5052237;28;19935;-73
2021/12/20 01:00:18;;;;;;;;;;;4.00;95.20;;;;;;5056225;28;19978;-73
2021/12/20 01:02:46;;;;;;;;;;;3.90;95.20;;;;;;5055110;28;19933;-73
2021/12/20 01:05:13;;;;;;;;;;;3.90;95.10;;;;;;5058566;28;19932;-73
2021/12/20 01:07:39;;;;;;;;;;;4.00;95.20;;;;;;5052082;28;19928;-72
2021/12/20 01:10:08;;;;;;;;;;;4.00;95.20;;;;;;5056492;28;19936;-72
2021/12/20 01:12:42;;;;;;;;;;;3.90;95.10;;;;;;5045723;28;19963;-72
2021/12/20 01:15:09;;;;;;;;;;;3.90;95.10;;;;;;5050770;28;19982;-73
2021/12/20 01:17:36;;;;;;;;;;;4.00;95.20;;;;;;5058760;28;19928;-73
2021/12/20 01:20:04;;;;;;;;;;;3.90;95.20;;;;;;5050334;28;20026;-73
2021/12/20 01:22:31;;;;;;;;;;;3.90;95.20;;;;;;5061856;28;19933;-73
2021/12/20 01:24:58;;;;;;;;;;;3.90;95.20;;;;;;5049003;28;19925;-72
2021/12/20 01:27:24;;;;;;;;;;;4.00;95.20;;;;;;5051963;28;19928;-73
2021/12/20 01:29:51;;;;;;;;;;;4.00;95.20;;;;;;5053233;28;19932;-73
2021/12/20 01:32:17;;;;;;;;;;;4.00;95.20;;;;;;5051212;28;19940;-73
2021/12/20 01:34:44;;;;;;;;;;;3.90;95.20;;;;;;5053688;28;19935;-72
2021/12/20 01:37:13;;;;;;;;;;;4.00;95.20;;;;;;5049926;28;19928;-73
2021/12/20 01:39:39;;;;;;;;;;;4.00;95.20;;;;;;5052867;28;19928;-72
2021/12/20 01:42:06;;;;;;;;;;;3.90;95.10;;;;;;5054520;28;19925;-73
2021/12/20 01:44:33;;;;;;;;;;;4.00;95.20;;;;;;5053339;28;19928;-72
2021/12/20 01:47:02;;;;;;;;;;;4.00;95.20;;;;;;5052281;28;20288;-72
2021/12/20 01:49:31;;;;;;;;;;;4.00;95.20;;;;;;5055670;28;19928;-73
2021/12/20 01:52:09;;;;;;;;;;;4.00;95.10;;;;;;5057622;28;20418;-72
2021/12/20 01:54:37;;;;;;;;;;;4.00;95.20;;;;;;5051345;28;19936;-73
2021/12/20 01:57:04;;;;;;;;;;;4.00;95.10;;;;;;5058625;28;19929;-73
2021/12/20 01:59:31;;;;;;;;;;;4.00;95.10;;;;;;5055129;28;19936;-72
2021/12/20 02:01:57;;;;;;;;;;;3.90;95.10;;;;;;5048818;28;19931;-72
2021/12/20 02:04:24;;;;;;;;;;;4.00;95.10;;;;;;5054577;28;20024;-72
2021/12/20 02:06:51;;;;;;;;;;;3.90;95.10;;;;;;5053544;28;19932;-73
2021/12/20 02:09:18;;;;;;;;;;;3.90;95.10;;;;;;5055849;28;19935;-73
2021/12/20 02:11:47;;;;;;;;;;;3.90;95.10;;;;;;5048130;28;19940;-72
2021/12/20 02:14:14;;;;;;;;;;;4.00;95.10;;;;;;5055659;28;19936;-73
2021/12/20 02:16:42;;;;;;;;;;;4.00;95.10;;;;;;5059055;28;19936;-73
2021/12/20 02:19:10;;;;;;;;;;;4.00;95.10;;;;;;5061043;28;19936;-72
2021/12/20 02:21:38;;;;;;;;;;;3.90;95.10;;;;;;5056737;28;19928;-73
2021/12/20 02:24:05;;;;;;;;;;;3.90;95.10;;;;;;5060626;28;19932;-73
2021/12/20 02:26:31;;;;;;;;;;;3.90;95.10;;;;;;5051655;28;19941;-73
2021/12/20 02:29:04;;;;;;;;;;;4.00;95.20;;;;;;5050683;28;19932;-72
2021/12/20 02:37:17;;;;;;;;;;;4.00;95.10;;;;;;5056764;28;19930;-72
2021/12/20 02:39:44;;;;;;;;;;;3.90;95.10;;;;;;5052537;28;19932;-72
2021/12/20 02:42:14;;;;;;;;;;;4.00;95.10;;;;;;5057251;28;20392;-72
2021/12/20 02:44:45;;;;;;;;;;;3.90;95.10;;;;;;5056234;28;19929;-73
2021/12/20 02:47:16;;;;;;;;;;;3.90;95.10;;;;;;5056925;28;19939;-73
2021/12/20 02:49:43;;;;;;;;;;;3.90;95.10;;;;;;5055754;28;20015;-73
2021/12/20 02:52:11;;;;;;;;;;;3.90;95.10;;;;;;5051771;28;19935;-72
2021/12/20 02:54:38;;;;;;;;;;;4.00;95.10;;;;;;5057524;28;20392;-73
2021/12/20 02:57:05;;;;;;;;;;;4.00;95.10;;;;;;5053407;28;19928;-72
2021/12/20 02:59:31;;;;;;;;;;;4.00;95.10;;;;;;5054913;28;19932;-73
2021/12/20 03:01:59;;;;;;;;;;;3.90;95.10;;;;;;5057463;28;20658;-72
2021/12/20 03:04:26;;;;;;;;;;;3.90;95.10;;;;;;5058763;28;19928;-72
2021/12/20 03:06:54;;;;;;;;;;;3.90;95.10;;;;;;5048839;28;19936;-72
2021/12/20 03:09:28;;;;;;;;;;;3.90;95.10;;;;;;5055824;28;19936;-73
2021/12/20 03:11:58;;;;;;;;;;;3.90;95.20;;;;;;5056119;28;19928;-72
2021/12/20 03:14:28;;;;;;;;;;;3.90;95.10;;;;;;5058079;28;19932;-73
2021/12/20 03:16:55;;;;;;;;;;;3.90;95.10;;;;;;5053275;28;19932;-73
2021/12/20 03:19:21;;;;;;;;;;;3.90;95.10;;;;;;5047245;28;19932;-73
2021/12/20 03:21:48;;;;;;;;;;;3.90;95.10;;;;;;5055914;28;19925;-72
2021/12/20 03:24:14;;;;;;;;;;;4.00;95.20;;;;;;5055075;28;19935;-72
2021/12/20 03:26:42;;;;;;;;;;;4.00;95.20;;;;;;5054273;28;19936;-73
2021/12/20 03:29:09;;;;;;;;;;;3.90;95.10;;;;;;5052789;28;19928;-73
2021/12/20 03:31:36;;;;;;;;;;;3.90;95.10;;;;;;5051017;28;19929;-73
2021/12/20 03:34:03;;;;;;;;;;;3.90;95.10;;;;;;5053416;28;19932;-73
2021/12/20 03:36:29;;;;;;;;;;;3.90;95.10;;;;;;5056255;28;19929;-73
2021/12/20 03:38:56;;;;;;;;;;;3.90;95.20;;;;;;5056266;28;20694;-72
2021/12/20 03:41:23;;;;;;;;;;;3.90;95.20;;;;;;5052966;28;20721;-73
2021/12/20 03:43:51;;;;;;;;;;;3.90;95.10;;;;;;5048951;28;19936;-73
2021/12/20 03:46:17;;;;;;;;;;;3.90;95.20;;;;;;5048841;28;19936;-73
2021/12/20 03:48:44;;;;;;;;;;;3.90;95.20;;;;;;5055956;28;19986;-72
2021/12/20 03:51:11;;;;;;;;;;;3.90;95.20;;;;;;5049533;28;19933;-72
2021/12/20 03:53:37;;;;;;;;;;;3.90;95.10;;;;;;5058318;28;20517;-73
2021/12/20 03:56:05;;;;;;;;;;;3.90;95.20;;;;;;5055686;28;19933;-73
2021/12/20 03:58:32;;;;;;;;;;;3.90;95.20;;;;;;5056915;28;19925;-72
2021/12/20 04:01:01;;;;;;;;;;;3.90;95.20;;;;;;5050495;28;19956;-72
2021/12/20 04:03:30;;;;;;;;;;;3.90;95.20;;;;;;5058397;28;19933;-73
2021/12/20 04:05:57;;;;;;;;;;;3.90;95.20;;;;;;5051572;28;19958;-72
2021/12/20 04:08:24;;;;;;;;;;;3.90;95.20;;;;;;5052437;28;20354;-73
2021/12/20 04:10:50;;;;;;;;;;;3.90;95.20;;;;;;5056897;28;19932;-73
2021/12/20 04:13:17;;;;;;;;;;;3.90;95.20;;;;;;5058102;28;19929;-73
2021/12/20 04:15:43;;;;;;;;;;;3.90;95.20;;;;;;5051359;28;19928;-73
2021/12/20 04:18:11;;;;;;;;;;;3.90;95.20;;;;;;5059979;28;20350;-73
2021/12/20 04:20:38;;;;;;;;;;;3.90;95.20;;;;;;5049928;28;20327;-73
2021/12/20 04:23:04;;;;;;;;;;;3.90;95.20;;;;;;5052658;28;19998;-73
2021/12/20 04:25:31;;;;;;;;;;;3.90;95.20;;;;;;5052163;28;19935;-73
2021/12/20 04:27:57;;;;;;;;;;;3.90;95.20;;;;;;5051120;28;20601;-72
2021/12/20 04:30:28;;;;;;;;;;;3.90;95.20;;;;;;5054433;28;20360;-73
2021/12/20 04:32:54;;;;;;;;;;;3.90;95.20;;;;;;5051205;28;19936;-73
2021/12/20 04:35:22;;;;;;;;;;;3.90;95.50;;;;;;5061208;28;19932;-73
2021/12/20 04:37:50;;;;;;;;;;;3.90;95.20;;;;;;5058473;28;19933;-73
2021/12/20 04:40:20;;;;;;;;;;;3.90;95.20;;;;;;5053418;28;19932;-73
2021/12/20 04:42:47;;;;;;;;;;;3.90;95.20;;;;;;5058783;28;20031;-73
2021/12/20 04:45:13;;;;;;;;;;;3.90;95.20;;;;;;5049680;28;20009;-73
2021/12/20 04:47:40;;;;;;;;;;;3.90;95.20;;;;;;5054316;28;19928;-73
2021/12/20 04:50:07;;;;;;;;;;;3.90;95.20;;;;;;5049709;28;19990;-73
2021/12/20 04:52:36;;;;;;;;;;;3.90;95.50;;;;;;5054662;28;19975;-73
2021/12/20 04:55:02;;;;;;;;;;;3.90;95.20;;;;;;5051548;28;19932;-73
2021/12/20 04:57:29;;;;;;;;;;;3.90;95.20;;;;;;5057722;28;19925;-73
2021/12/20 04:59:56;;;;;;;;;;;3.90;95.20;;;;;;5049539;28;20005;-73
2021/12/20 05:02:22;;;;;;;;;;;3.90;95.20;;;;;;5054702;28;19935;-73
2021/12/20 05:04:49;;;;;;;;;;;3.90;95.20;;;;;;5051856;28;19928;-73
2021/12/20 05:07:16;;;;;;;;;;;3.90;95.20;;;;;;5059091;28;19928;-73
2021/12/20 05:09:44;;;;;;;;;;;3.90;95.20;;;;;;5056266;28;19933;-73
2021/12/20 05:12:12;;;;;;;;;;;3.90;95.20;;;;;;5052616;28;19928;-73
2021/12/20 05:14:40;;;;;;;;;;;3.90;95.20;;;;;;5058388;28;19976;-73
2021/12/20 05:17:06;;;;;;;;;;;3.90;95.20;;;;;;5058120;28;19929;-73
2021/12/20 05:19:33;;;;;;;;;;;3.90;95.20;;;;;;5051336;28;20636;-73
2021/12/20 05:21:59;;;;;;;;;;;3.90;95.20;;;;;;5055354;28;19932;-73
2021/12/20 05:24:26;;;;;;;;;;;3.90;95.20;;;;;;5056742;28;19928;-73
2021/12/20 05:26:54;;;;;;;;;;;3.90;95.20;;;;;;5048483;28;19925;-73
2021/12/20 05:29:20;;;;;;;;;;;3.90;95.20;;;;;;5053978;28;19933;-72
2021/12/20 05:31:47;;;;;;;;;;;3.90;95.20;;;;;;5052169;28;20019;-73
2021/12/20 05:34:13;;;;;;;;;;;3.90;95.20;;;;;;5048779;28;19944;-73
2021/12/20 05:36:40;;;;;;;;;;;3.90;95.20;;;;;;5049669;28;19936;-72
2021/12/20 05:39:07;;;;;;;;;;;3.90;95.20;;;;;;5054629;28;19931;-73
2021/12/20 05:41:33;;;;;;;;;;;3.90;95.20;;;;;;5055976;28;19939;-73
2021/12/20 05:44:01;;;;;;;;;;;3.90;95.20;;;;;;5050579;28;19982;-73
2021/12/20 05:46:28;;;;;;;;;;;3.90;95.20;;;;;;5054568;28;20027;-73
2021/12/20 05:48:54;;;;;;;;;;;3.90;95.20;;;;;;5055578;28;19928;-72
2021/12/20 05:51:21;;;;;;;;;;;3.90;95.20;;;;;;5054514;28;19928;-73
2021/12/20 05:53:47;;;;;;;;;;;3.90;95.20;;;;;;5057480;28;19932;-73
2021/12/20 05:56:14;;;;;;;;;;;3.90;95.20;;;;;;5052464;28;20644;-73
2021/12/20 05:58:40;;;;;;;;;;;3.90;95.20;;;;;;5050973;28;19928;-73
2021/12/20 06:01:08;;;;;;;;;;;3.90;95.20;;;;;;5061262;28;19929;-73
2021/12/20 06:03:35;;;;;;;;;;;3.80;95.20;;;;;;5054741;28;20392;-72
2021/12/20 06:06:02;;;;;;;;;;;3.90;95.20;;;;;;5057003;28;19929;-73
2021/12/20 06:08:28;;;;;;;;;;;3.80;95.20;;;;;;5057559;28;19939;-73
2021/12/20 06:10:55;;;;;;;;;;;3.80;95.20;;;;;;5059839;28;19936;-73
2021/12/20 06:13:21;;;;;;;;;;;3.80;95.20;;;;;;5056315;28;19932;-73
2021/12/20 06:15:48;;;;;;;;;;;3.80;95.30;;;;;;5060061;28;19978;-73
2021/12/20 06:18:16;;;;;;;;;;;3.80;95.30;;;;;;5061446;28;19930;-73
2021/12/20 06:20:44;;;;;;;;;;;3.80;95.20;;;;;;5052935;28;19936;-72
2021/12/20 06:23:11;;;;;;;;;;;3.80;95.60;;;;;;5052761;28;20388;-73
2021/12/20 06:25:37;;;;;;;;;;;3.80;95.20;;;;;;5053590;28;20005;-73
2021/12/20 06:28:04;;;;;;;;;;;3.80;95.30;;;;;;5058133;28;19947;-72
2021/12/20 06:30:31;;;;;;;;;;;3.80;95.30;;;;;;5056933;28;19939;-73
2021/12/20 06:32:57;;;;;;;;;;;3.80;95.30;;;;;;5057241;28;20000;-67
2021/12/20 06:35:25;;;;;;;;;;;3.80;95.30;;;;;;5053528;28;19940;-67
2021/12/20 06:37:59;;;;;;;;;;;3.80;95.30;;;;;;5057607;28;19929;-67
2021/12/20 06:40:26;;;;;;;;;;;3.80;95.30;;;;;;5051060;28;19935;-67
2021/12/20 06:42:53;;;;;;;;;;;3.80;95.30;;;;;;5048657;28;19986;-67
2021/12/20 06:45:20;;;;;;;;;;;3.80;95.30;;;;;;5051700;28;20385;-68
2021/12/20 06:47:46;;;;;;;;;;;3.80;95.30;;;;;;5054295;28;19928;-67
2021/12/20 06:50:13;;;;;;;;;;;3.80;95.30;;;;;;5054461;28;19933;-68
2021/12/20 06:52:41;;;;;;;;;;;3.80;95.30;;;;;;5055320;28;19979;-67
2021/12/20 06:55:09;;;;;;;;;;;3.80;95.30;;;;;;5051132;28;20396;-67
2021/12/20 06:57:36;;;;;;;;;;;3.80;95.30;;;;;;5049351;28;19929;-67
2021/12/20 07:00:03;;;;;;;;;;;3.80;95.30;;;;;;5052679;28;19990;-67
2021/12/20 07:02:30;;;;;;;;;;;3.80;95.30;;;;;;5054973;28;19932;-67
2021/12/20 07:04:56;;;;;;;;;;;3.70;95.30;;;;;;5057962;28;19954;-67
2021/12/20 07:07:23;;;;;;;;;;;3.80;95.30;;;;;;5058879;28;19935;-74
2021/12/20 07:09:51;;;;;;;;;;;3.80;95.30;;;;;;5055495;28;19954;-74
2021/12/20 07:12:17;;;;;;;;;;;3.80;95.30;;;;;;5055561;28;19936;-74
2021/12/20 07:14:48;;;;;;;;;;;3.80;95.30;;;;;;5059919;28;19932;-74
2021/12/20 07:17:15;;;;;;;;;;;3.80;95.30;;;;;;5056285;28;20301;-74
2021/12/20 07:19:41;;;;;;;;;;;3.80;95.30;;;;;;5054505;28;19935;-74
2021/12/20 07:22:08;;;;;;;;;;;3.80;95.30;;;;;;5055844;28;19935;-74
2021/12/20 07:24:34;;;;;;;;;;;3.70;95.30;;;;;;5052904;28;19932;-74
2021/12/20 07:27:03;;;;;;;;;;;3.80;95.30;;;;;;5056891;28;19939;-74
2021/12/20 07:29:29;;;;;;;;;;;3.70;95.30;;;;;;5051737;28;19985;-74
2021/12/20 07:31:56;;;;;;;;;;;3.80;95.30;;;;;;5054550;28;19990;-74
2021/12/20 07:34:22;;;;;;;;;;;3.70;95.30;;;;;;5049207;28;19940;-74
2021/12/20 07:36:50;;;;;;;;;;;3.70;95.30;;;;;;5053902;28;19936;-74
2021/12/20 07:39:17;;;;;;;;;;;3.70;95.30;;;;;;5053937;28;19986;-74
2021/12/20 07:41:44;;;;;;;;;;;3.70;95.30;;;;;;5051690;28;19928;-74
2021/12/20 07:44:12;;;;;;;;;;;3.70;95.30;;;;;;5053625;28;19929;-74
2021/12/20 07:46:39;;;;;;;;;;;3.70;95.30;;;;;;5053474;28;19940;-74
2021/12/20 07:49:05;;;;;;;;;;;3.70;95.30;;;;;;5053625;28;19935;-74
2021/12/20 07:51:32;;;;;;;;;;;3.70;95.30;;;;;;5052608;28;19928;-74
2021/12/20 07:53:59;;;;;;;;;;;3.80;95.30;;;;;;5054890;28;19928;-73
2021/12/20 07:56:25;;;;;;;;;;;3.70;95.30;;;;;;5059066;28;19928;-74
2021/12/20 07:58:52;;;;;;;;;;;3.70;95.30;;;;;;5060040;28;19932;-74
2021/12/20 08:01:19;;;;;;;;;;;3.70;95.30;;;;;;5050551;28;19932;-74
2021/12/20 08:03:46;;;;;;;;;;;3.70;95.30;;;;;;5055456;28;19936;-74
2021/12/20 08:06:13;;;;;;;;;;;3.70;95.30;;;;;;5057147;28;19932;-74
2021/12/20 08:08:40;;;;;;;;;;;3.70;95.30;;;;;;5057372;28;20339;-74
2021/12/20 08:11:07;;;;;;;;;;;3.70;95.30;;;;;;5055126;28;19955;-74
2021/12/20 08:13:33;;;;;;;;;;;3.80;95.30;;;;;;5050453;28;19982;-74
2021/12/20 08:16:00;;;;;;;;;;;3.70;95.30;;;;;;5048319;28;19947;-74
2021/12/20 08:18:28;;;;;;;;;;;3.80;95.30;;;;;;5055403;28;19931;-74
2021/12/20 08:20:55;;;;;;;;;;;3.80;95.30;;;;;;5048259;28;19929;-74
2021/12/20 08:23:22;;;;;;;;;;;3.70;95.30;;;;;;5051232;28;19928;-74
2021/12/20 08:25:48;;;;;;;;;;;3.80;95.30;;;;;;5048779;28;19931;-74
2021/12/20 08:28:15;;;;;;;;;;;3.80;95.30;;;;;;5053501;28;19937;-74
2021/12/20 08:30:41;;;;;;;;;;;3.80;95.30;;;;;;5050948;28;19932;-74
2021/12/20 08:33:08;;;;;;;;;;;3.80;95.30;;;;;;5055067;28;19928;-74
2021/12/20 08:35:36;;;;;;;;;;;3.80;95.30;;;;;;5049809;28;19959;-74
2021/12/20 08:38:03;;;;;;;;;;;3.70;95.30;;;;;;5058003;28;19933;-74
2021/12/20 08:40:29;;;;;;;;;;;3.80;95.30;;;;;;5054164;28;20273;-74
2021/12/20 08:42:56;;;;;;;;;;;3.70;95.30;;;;;;5057256;28;19928;-74
2021/12/20 08:45:23;;;;;;;;;;;3.80;95.30;;;;;;5059394;28;19935;-75
2021/12/20 08:47:49;;;;;;;;;;;3.70;95.30;;;;;;5055933;28;19928;-74
2021/12/20 08:50:18;;;;;;;;;;;3.80;95.30;;;;;;5053433;28;19937;-74
2021/12/20 08:52:46;;;;;;;;;;;3.80;95.30;;;;;;5052870;28;20463;-75
2021/12/20 08:55:12;;;;;;;;;;;3.80;95.30;;;;;;5052500;28;19936;-74
2021/12/20 08:57:40;;;;;;;;;;;3.80;95.30;;;;;;5052745;28;19925;-74
2021/12/20 09:00:09;;;;;;;;;;;3.80;95.30;;;;;;5046671;28;19928;-74
2021/12/20 09:02:36;;;;;;;;;;;3.80;95.30;;;;;;5053924;28;19928;-74
2021/12/20 09:05:03;;;;;;;;;;;3.80;95.30;;;;;;5048059;28;19932;-75
2021/12/20 09:07:29;;;;;;;;;;;3.80;95.30;;;;;;5053160;28;19939;-74
2021/12/20 09:09:57;;;;;;;;;;;3.80;95.30;;;;;;5051999;28;19990;-74
2021/12/20 09:12:24;;;;;;;;;;;3.80;95.30;;;;;;5048173;28;19955;-75
2021/12/20 09:14:50;;;;;;;;;;;3.80;95.30;;;;;;5058505;28;19930;-75
2021/12/20 09:17:17;;;;;;;;;;;3.80;95.20;;;;;;5057470;28;19932;-75
2021/12/20 09:19:44;;;;;;;;;;;3.80;95.30;;;;;;5047290;28;19936;-74
2021/12/20 09:22:11;;;;;;;;;;;3.80;95.30;;;;;;5055363;28;19928;-75
2021/12/20 09:24:38;;;;;;;;;;;3.80;95.30;;;;;;5057280;28;20019;-73
2021/12/20 09:27:06;;;;;;;;;;;3.90;95.30;;;;;;5053432;28;20412;-73
2021/12/20 09:29:33;;;;;;;;;;;3.90;95.30;;;;;;5050375;28;19935;-73
2021/12/20 09:32:00;;;;;;;;;;;3.90;95.30;;;;;;5059684;28;20023;-74
2021/12/20 09:34:27;;;;;;;;;;;3.90;95.30;;;;;;5057849;28;19928;-73
2021/12/20 09:36:55;;;;;;;;;;;3.90;95.30;;;;;;5056568;28;19936;-74
2021/12/20 09:39:22;;;;;;;;;;;3.90;95.30;;;;;;5061420;28;19933;-74
2021/12/20 09:44:32;;;;;;;;;;;4.00;95.30;;;;;;5058567;28;19929;-73
2021/12/20 09:46:59;;;;;;;;;;;4.00;95.20;;;;;;5057015;28;20400;-73
2021/12/20 09:49:26;;;;;;;;;;;4.00;95.20;;;;;;5056991;28;21199;-73
2021/12/20 09:51:54;;;;;;;;;;;4.00;95.20;;;;;;5064500;28;19966;-73
2021/12/20 09:54:21;;;;;;;;;;;4.00;95.10;;;;;;5064323;28;19928;-74
2021/12/20 09:56:49;;;;;;;;;;;4.00;95.10;;;;;;5054716;28;19934;-74
2021/12/20 09:59:19;;;;;;;;;;;4.00;95.10;;;;;;5058059;28;20787;-74
2021/12/20 10:01:48;;;;;;;;;;;4.10;95.10;;;;;;5056040;28;19932;-74
2021/12/20 10:04:15;;;;;;;;;;;4.00;95.00;;;;;;5052779;28;19929;-73
2021/12/20 10:06:42;;;;;;;;;;;4.10;95.30;;;;;;5051767;28;19936;-73
2021/12/20 10:09:13;;;;;;;;;;;4.10;95.00;;;;;;5058167;28;19928;-73
2021/12/20 10:11:40;;;;;;;;;;;4.10;94.90;;;;;;5050638;28;19951;-73
2021/12/20 10:14:08;;;;;;;;;;;4.10;94.80;;;;;;5058518;28;19951;-73
2021/12/20 10:16:35;;;;;;;;;;;4.10;94.80;;;;;;5059211;28;19929;-73
2021/12/20 10:19:03;;;;;;;;;;;4.10;94.80;;;;;;5052112;28;19936;-73
2021/12/20 10:21:37;;;;;;;;;;;4.10;94.80;;;;;;5057815;28;19944;-74
2021/12/20 10:24:04;;;;;;;;;;;4.20;94.80;;;;;;5058926;28;19940;-72
2021/12/20 10:26:37;;;;;;;;;;;4.20;94.80;;;;;;5058099;28;19951;-73
2021/12/20 10:29:16;;;;;;;;;;;4.20;94.80;;;;;;5056390;28;19982;-73
2021/12/20 10:31:42;;;;;;;;;;;4.20;94.80;;;;;;5059731;28;19932;-73
2021/12/20 10:34:10;;;;;;;;;;;4.20;94.70;;;;;;5054638;28;19933;-74
2021/12/20 10:36:37;;;;;;;;;;;4.20;94.70;;;;;;5054283;28;19982;-73
2021/12/20 10:39:06;;;;;;;;;;;4.20;94.70;;;;;;5054836;28;19928;-74
2021/12/20 10:41:36;;;;;;;;;;;4.20;94.60;;;;;;5055943;28;19928;-73
2021/12/20 10:44:13;;;;;;;;;;;4.20;94.60;;;;;;5052164;28;20478;-73
2021/12/20 10:46:45;;;;;;;;;;;4.30;94.90;;;;;;5057558;28;20712;-73
2021/12/20 10:49:14;;;;;;;;;;;4.30;94.60;;;;;;5055581;28;19939;-73
2021/12/20 10:51:42;;;;;;;;;;;4.30;94.90;;;;;;5053086;28;19928;-73
2021/12/20 10:54:11;;;;;;;;;;;4.30;94.60;;;;;;5058078;28;20619;-73
2021/12/20 10:56:39;;;;;;;;;;;4.30;94.60;;;;;;5054573;28;19935;-73
2021/12/20 10:59:07;;;;;;;;;;;4.30;94.60;;;;;;5058652;28;20300;-73
2021/12/20 11:02:01;;;;;;;;;;;4.30;94.50;;;;;;5051378;28;20023;-73
2021/12/20 11:04:31;;;;;;;;;;;4.30;94.50;;;;;;5054159;28;19935;-72
2021/12/20 11:09:04;;;;;;;;;;;4.30;94.50;;;;;;5049718;28;20039;-73
2021/12/20 11:09:53;;;;;;;;;;;4.30;94.50;;;;;;5054668;28;19935;-73
2021/12/20 11:12:22;;;;;;;;;;;4.30;94.50;;;;;;5052412;28;19924;-73
2021/12/20 11:14:50;;;;;;;;;;;4.40;94.60;;;;;;5050787;28;20003;-72
2021/12/20 11:17:17;;;;;;;;;;;4.30;94.60;;;;;;5056665;28;19933;-73
2021/12/20 11:19:46;;;;;;;;;;;4.30;94.60;;;;;;5051314;28;20494;-73
2021/12/20 11:22:14;;;;;;;;;;;4.40;94.60;;;;;;5050192;28;19935;-73
2021/12/20 11:24:42;;;;;;;;;;;4.40;94.60;;;;;;5053511;28;19928;-73
2021/12/20 11:27:10;;;;;;;;;;;4.40;94.60;;;;;;5055051;28;19935;-73
2021/12/20 11:29:37;;;;;;;;;;;4.40;94.60;;;;;;5058016;28;19987;-73
2021/12/20 11:32:05;;;;;;;;;;;4.40;94.60;;;;;;5052880;28;19924;-73
2021/12/20 11:34:31;;;;;;;;;;;4.40;94.60;;;;;;5049936;28;19928;-73
2021/12/20 11:36:59;;;;;;;;;;;4.40;94.60;;;;;;5054530;28;19932;-73
2021/12/20 11:39:26;;;;;;;;;;;4.40;94.60;;;;;;5052773;28;19940;-73
2021/12/20 11:41:53;;;;;;;;;;;4.40;94.60;;;;;;5059403;28;20403;-73
2021/12/20 11:44:21;;;;;;;;;;;4.40;94.60;;;;;;5055238;28;19928;-73
2021/12/20 11:46:54;;;;;;;;;;;4.40;94.60;;;;;;5055640;28;19929;-73
2021/12/20 11:49:21;;;;;;;;;;;4.40;94.60;;;;;;5056577;28;19935;-73
2021/12/20 11:52:12;;;;;;;;;;;4.40;94.70;;;;;;5052505;28;20382;-73
2021/12/20 11:54:41;;;;;;;;;;;4.40;94.70;;;;;;5056838;28;20346;-73
2021/12/20 11:57:29;;;;;;;;;;;4.40;94.70;;;;;;5050167;28;19974;-74
2021/12/20 11:59:57;;;;;;;;;;;4.40;94.70;;;;;;5056959;28;19936;-73
2021/12/20 12:02:25;;;;;;;;;;;4.50;94.70;;;;;;5052723;28;19940;-73
2021/12/20 12:04:55;;;;;;;;;;;4.50;94.70;;;;;;5057225;28;19935;-74
2021/12/20 12:07:22;;;;;;;;;;;4.50;94.60;;;;;;5051314;28;19985;-73
2021/12/20 12:10:01;;;;;;;;;;;4.50;94.60;;;;;;5056831;28;19959;-73
2021/12/20 12:12:28;;;;;;;;;;;4.50;94.60;;;;;;5054046;28;20681;-73
2021/12/20 12:15:03;;;;;;;;;;;4.60;94.60;;;;;;5051567;28;19931;-73
2021/12/20 12:17:47;;;;;;;;;;;4.60;94.60;;;;;;5056983;28;19932;-73
2021/12/20 12:20:14;;;;;;;;;;;4.60;94.50;;;;;;5050116;28;20741;-73
2021/12/20 12:22:41;;;;;;;;;;;4.60;94.40;;;;;;5054197;28;19975;-74
2021/12/20 12:25:11;;;;;;;;;;;4.60;94.40;;;;;;5055012;28;20736;-74
2021/12/20 12:27:40;;;;;;;;;;;4.70;94.50;;;;;;5054676;28;19940;-74
2021/12/20 12:30:27;;;;;;;;;;;4.70;94.40;;;;;;5056205;28;19932;-73
2021/12/20 12:33:13;;;;;;;;;;;4.70;94.40;;;;;;5052756;28;19935;-73
2021/12/20 12:35:50;;;;;;;;;;;4.70;94.30;;;;;;5050135;28;20362;-73
2021/12/20 12:38:17;;;;;;;;;;;4.80;94.30;;;;;;5052139;28;19932;-73
2021/12/20 12:40:48;;;;;;;;;;;4.80;94.30;;;;;;5052455;28;19932;-73
2021/12/20 12:43:15;;;;;;;;;;;4.80;94.30;;;;;;5051428;28;19963;-73
2021/12/20 12:45:50;;;;;;;;;;;4.80;94.20;;;;;;5058772;28;19932;-74
2021/12/20 12:48:35;;;;;;;;;;;4.90;94.20;;;;;;5056394;28;19929;-74
2021/12/20 12:51:08;;;;;;;;;;;4.80;94.10;;;;;;5050526;28;19986;-73
2021/12/20 12:53:38;;;;;;;;;;;4.90;94.00;;;;;;5054387;28;19935;-74
2021/12/20 12:56:23;;;;;;;;;;;4.90;94.00;;;;;;5054251;28;19929;-73
2021/12/20 12:59:19;;;;;;;;;;;5.00;94.00;;;;;;5052449;28;20289;-74
2021/12/20 13:01:49;;;;;;;;;;;5.00;94.00;;;;;;5045874;28;19944;-74
2021/12/20 13:04:16;;;;;;;;;;;5.00;93.90;;;;;;5057125;28;19928;-73
2021/12/20 13:06:43;;;;;;;;;;;5.00;93.80;;;;;;5057290;28;19932;-74
2021/12/20 13:09:09;;;;;;;;;;;5.10;93.90;;;;;;5055330;28;20579;-74
2021/12/20 13:11:38;;;;;;;;;;;5.10;93.80;;;;;;5050404;28;20196;-73
2021/12/20 13:14:08;;;;;;;;;;;5.10;93.70;;;;;;5057762;28;19929;-74
2021/12/20 13:16:37;;;;;;;;;;;5.10;93.70;;;;;;5059075;28;19972;-74
2021/12/20 13:19:05;;;;;;;;;;;5.10;93.60;;;;;;5055764;28;20373;-73
2021/12/20 13:21:48;;;;;;;;;;;5.10;93.60;;;;;;5052125;28;19990;-74
2021/12/20 13:24:16;;;;;;;;;;;5.10;93.90;;;;;;5052446;28;19932;-74
2021/12/20 13:26:42;;;;;;;;;;;5.10;93.60;;;;;;5049971;28;19936;-74
2021/12/20 13:29:14;;;;;;;;;;;5.10;93.60;;;;;;5053949;28;19928;-74
2021/12/20 13:31:41;;;;;;;;;;;5.10;93.50;;;;;;5051358;28;19933;-74
2021/12/20 13:34:11;;;;;;;;;;;5.10;93.60;;;;;;5050378;28;19928;-74
2021/12/20 13:36:38;;;;;;;;;;;5.10;93.50;;;;;;5049817;28;19933;-74
2021/12/20 13:39:06;;;;;;;;;;;5.20;93.50;;;;;;5053882;28;20381;-74
2021/12/20 13:41:34;;;;;;;;;;;5.20;93.50;;;;;;5054375;28;19928;-73
2021/12/20 13:44:04;;;;;;;;;;;5.20;93.30;;;;;;5055269;28;19932;-73
2021/12/20 13:46:40;;;;;;;;;;;5.30;93.20;;;;;;5054028;28;20078;-73
2021/12/20 13:49:07;;;;;;;;;;;5.30;93.10;;;;;;5053806;28;19993;-73
2021/12/20 13:51:36;;;;;;;;;;;5.30;93.00;;;;;;5056758;28;19928;-73
2021/12/20 13:54:14;;;;;;;;;;;5.40;93.00;;;;;;5058652;28;19928;-73
2021/12/20 13:56:42;;;;;;;;;;;5.40;92.90;;;;;;5046343;28;20338;-67
2021/12/20 13:59:09;;;;;;;;;;;5.50;92.80;;;;;;5061665;28;19936;-67
2021/12/20 14:01:37;;;;;;;;;;;5.50;92.60;;;;;;5050610;28;19929;-67
2021/12/20 14:04:04;;;;;;;;;;;5.50;92.50;;;;;;5057190;28;19929;-67
2021/12/20 14:06:38;;;;;;;;;;;5.60;92.40;;;;;;5051536;28;19935;-67
2021/12/20 14:09:20;;;;;;;;;;;5.60;92.40;;;;;;5050783;28;20388;-67
2021/12/20 14:11:46;;;;;;;;;;;5.60;92.30;;;;;;5051081;28;19928;-67
2021/12/20 14:14:13;;;;;;;;;;;5.60;92.30;;;;;;5051203;28;19933;-67
2021/12/20 14:16:57;;;;;;;;;;;5.60;92.20;;;;;;5051506;28;19933;-67
2021/12/20 14:19:38;;;;;;;;;;;5.70;92.20;;;;;;5048996;28;19928;-66
2021/12/20 14:22:05;;;;;;;;;;;5.70;92.20;;;;;;5058266;28;19932;-67
2021/12/20 14:24:37;;;;;;;;;;;5.60;92.20;;;;;;5058730;28;19928;-66
2021/12/20 14:27:04;;;;;;;;;;;5.60;92.20;;;;;;5055010;28;20029;-67
2021/12/20 14:29:31;;;;;;;;;;;5.60;92.20;;;;;;5051149;28;19975;-67
2021/12/20 14:32:00;;;;;;;;;;;5.50;92.30;;;;;;5054704;28;19990;-73
2021/12/20 14:34:31;;;;;;;;;;;5.50;92.30;;;;;;5057218;28;19933;-73
2021/12/20 14:37:06;;;;;;;;;;;5.50;92.30;;;;;;5057054;28;19951;-73
2021/12/20 14:39:40;;;;;;;;;;;5.50;92.50;;;;;;5053969;28;19929;-73
2021/12/20 14:42:07;;;;;;;;;;;5.40;92.50;;;;;;5063219;28;19928;-73
2021/12/20 14:44:44;;;;;;;;;;;5.30;92.60;;;;;;5054069;28;19928;-73
2021/12/20 14:47:23;;;;;;;;;;;5.30;92.70;;;;;;5059629;28;20319;-73
2021/12/20 14:49:52;;;;;;;;;;;5.30;92.80;;;;;;5051313;28;20403;-73